createdAt,value
2022-09-16T00:02:39.967Z,0.60
2022-09-16T00:05:26.432Z,0.80
2022-09-16T00:08:12.698Z,0.95
2022-09-16T00:11:02.828Z,0.70
2022-09-16T00:13:48.285Z,0.60
2022-09-16T00:16:34.017Z,0.70
2022-09-16T00:19:19.279Z,0.70
2022-09-16T00:22:04.736Z,0.70
2022-09-16T00:24:50.270Z,0.60
2022-09-16T00:27:35.730Z,0.52
2022-09-16T00:30:21.156Z,0.50
2022-09-16T00:33:06.680Z,0.60
2022-09-16T00:35:52.283Z,0.77
2022-09-16T00:38:38.618Z,0.68
2022-09-16T00:41:33.125Z,1.10
2022-09-16T00:44:56.311Z,0.85
2022-09-16T00:47:51.467Z,0.93
2022-09-16T00:50:51.154Z,0.90
2022-09-16T00:53:43.179Z,1.08
2022-09-16T00:56:31.204Z,0.70
2022-09-16T00:59:28.252Z,0.60
2022-09-16T01:02:18.107Z,0.75
2022-09-16T01:05:09.700Z,0.50
2022-09-16T01:07:55.359Z,0.47
2022-09-16T01:10:42.425Z,0.60
2022-09-16T01:13:27.729Z,0.50
2022-09-16T01:16:30.770Z,0.47
2022-09-16T01:19:39.502Z,0.60
2022-09-16T01:23:11.866Z,0.70
2022-09-16T01:26:28.290Z,0.60
2022-09-16T01:29:32.256Z,0.50
2022-09-16T01:32:47.169Z,0.70
2022-09-16T01:35:58.134Z,0.60
2022-09-16T01:39:17.426Z,0.50
2022-09-16T01:42:16.521Z,0.68
2022-09-16T01:45:36.161Z,0.50
2022-09-16T01:48:41.984Z,0.50
2022-09-16T01:51:43.828Z,0.60
2022-09-16T01:54:37.264Z,0.50
2022-09-16T01:58:03.761Z,0.40
2022-09-16T02:00:55.366Z,0.52
2022-09-16T02:03:44.493Z,0.63
2022-09-16T02:06:31.669Z,1.15
2022-09-16T02:09:23.456Z,0.80
2022-09-16T02:12:15.949Z,0.68
2022-09-16T02:15:07.008Z,1.10
2022-09-16T02:18:00.484Z,0.55
2022-09-16T02:20:47.860Z,0.77
2022-09-16T02:23:39.875Z,0.40
2022-09-16T02:26:29.984Z,0.40
2022-09-16T02:29:22.765Z,0.40
2022-09-16T02:34:55.674Z,0.50
2022-09-16T02:38:04.134Z,0.40
2022-09-16T02:41:14.477Z,0.50
2022-09-16T02:44:00.452Z,0.60
2022-09-16T02:46:55.481Z,0.60
2022-09-16T02:50:09.247Z,0.52
2022-09-16T02:53:04.180Z,0.68
2022-09-16T02:56:16.103Z,0.60
2022-09-16T02:59:02.983Z,0.65
2022-09-16T03:01:48.753Z,0.60
2022-09-16T03:04:34.934Z,0.65
2022-09-16T03:07:20.623Z,0.43
2022-09-16T03:10:06.360Z,0.40
2022-09-16T03:13:21.952Z,0.50
2022-09-16T03:16:23.042Z,0.60
2022-09-16T03:19:31.993Z,0.50
2022-09-16T03:22:29.173Z,0.80
2022-09-16T03:25:42.213Z,0.60
2022-09-16T03:29:00.194Z,0.70
2022-09-16T03:32:07.164Z,0.68
2022-09-16T03:35:02.041Z,0.50
2022-09-16T03:37:48.071Z,0.77
2022-09-16T03:40:34.289Z,0.90
2022-09-16T03:43:19.810Z,0.90
2022-09-16T03:46:14.848Z,0.60
2022-09-16T03:49:00.139Z,0.60
2022-09-16T03:51:45.336Z,0.77
2022-09-16T03:54:31.169Z,0.85
2022-09-16T03:57:16.274Z,1.08
2022-09-16T04:00:02.185Z,1.00
2022-09-16T04:02:58.786Z,0.90
2022-09-16T04:05:44.684Z,1.00
2022-09-16T04:08:30.233Z,0.80
2022-09-16T04:11:15.503Z,1.20
2022-09-16T04:14:01.037Z,0.73
2022-09-16T04:16:46.641Z,1.20
2022-09-16T04:19:32.992Z,1.25
2022-09-16T04:22:18.587Z,1.10
2022-09-16T04:25:04.540Z,0.80
2022-09-16T04:27:49.871Z,1.30
2022-09-16T04:30:36.525Z,0.80
2022-09-16T04:33:22.298Z,1.20
2022-09-16T04:36:09.289Z,1.10
2022-09-16T04:38:54.773Z,0.70
2022-09-16T04:41:40.197Z,0.90
2022-09-16T04:44:27.085Z,1.25
2022-09-16T04:47:12.364Z,1.30
2022-09-16T04:49:57.944Z,1.10
2022-09-16T04:52:42.954Z,1.20
2022-09-16T04:55:28.969Z,1.42
2022-09-16T04:58:15.205Z,1.30
2022-09-16T05:01:08.173Z,1.10
2022-09-16T05:03:56.209Z,0.90
2022-09-16T05:06:41.959Z,0.90
2022-09-16T05:09:27.437Z,0.68
2022-09-16T05:12:12.873Z,0.88
2022-09-16T05:14:58.072Z,0.73
2022-09-16T05:17:51.745Z,0.98
2022-09-16T05:20:38.758Z,0.90
2022-09-16T05:23:23.877Z,0.88
2022-09-16T05:26:12.270Z,0.90
2022-09-16T05:29:17.538Z,0.80
2022-09-16T05:32:02.734Z,0.80
2022-09-16T05:34:49.612Z,0.90
2022-09-16T05:37:35.180Z,0.68
2022-09-16T05:40:20.896Z,0.88
2022-09-16T05:43:06.208Z,0.80
2022-09-16T05:45:53.063Z,0.93
2022-09-16T05:48:38.449Z,0.80
2022-09-16T05:51:26.131Z,0.82
2022-09-16T05:54:12.679Z,1.00
2022-09-16T05:56:57.650Z,0.90
2022-09-16T05:59:43.124Z,1.15
2022-09-16T06:02:28.587Z,0.65
2022-09-16T06:05:14.089Z,0.60
2022-09-16T06:07:59.680Z,0.80
2022-09-16T06:10:45.180Z,0.40
2022-09-16T06:13:31.620Z,0.55
2022-09-16T06:16:17.050Z,0.68
2022-09-16T06:19:05.240Z,0.85
2022-09-16T06:21:50.832Z,1.00
2022-09-16T06:24:36.412Z,1.10
2022-09-16T06:27:21.641Z,1.20
2022-09-16T06:30:07.624Z,0.93
2022-09-16T06:32:53.068Z,1.00
2022-09-16T06:35:38.202Z,1.20
2022-09-16T06:38:23.920Z,1.30
2022-09-16T06:41:11.161Z,1.02
2022-09-16T06:43:56.337Z,1.00
2022-09-16T06:46:41.848Z,0.95
2022-09-16T06:49:27.430Z,0.90
2022-09-16T06:52:12.909Z,1.00
2022-09-16T06:54:58.433Z,1.00
2022-09-16T06:57:43.901Z,1.00
2022-09-16T07:00:29.245Z,0.88
2022-09-16T07:03:14.770Z,0.80
2022-09-16T07:06:04.374Z,0.75
2022-09-16T07:08:49.687Z,0.82
2022-09-16T07:11:35.091Z,1.25
2022-09-16T07:14:20.050Z,1.00
2022-09-16T07:17:05.555Z,1.27
2022-09-16T07:19:50.724Z,0.70
2022-09-16T07:22:36.303Z,0.80
2022-09-16T07:25:21.999Z,0.90
2022-09-16T07:28:07.178Z,0.68
2022-09-16T07:30:53.136Z,0.70
2022-09-16T07:33:41.071Z,0.60
2022-09-16T07:36:29.978Z,0.80
2022-09-16T07:39:17.884Z,0.95
2022-09-16T07:42:06.193Z,0.88
2022-09-16T07:44:51.678Z,0.70
2022-09-16T07:47:37.030Z,0.70
2022-09-16T07:50:22.603Z,0.80
2022-09-16T07:53:08.033Z,0.80
2022-09-16T07:55:54.355Z,0.95
2022-09-16T07:58:40.738Z,0.80
2022-09-16T08:01:26.304Z,0.70
2022-09-16T08:04:12.369Z,1.00
2022-09-16T08:06:57.682Z,0.98
2022-09-16T08:09:48.561Z,1.05
2022-09-16T08:12:36.325Z,0.70
2022-09-16T08:15:21.944Z,1.75
2022-09-16T08:18:07.101Z,1.38
2022-09-16T08:20:52.665Z,1.00
2022-09-16T08:23:39.140Z,1.00
2022-09-16T08:26:25.562Z,1.10
2022-09-16T08:29:11.267Z,1.05
2022-09-16T08:31:56.668Z,0.90
2022-09-16T08:34:42.195Z,0.75
2022-09-16T08:37:27.960Z,0.70
2022-09-16T08:43:25.947Z,0.57
2022-09-16T08:46:25.607Z,0.63
2022-09-16T08:52:27.411Z,1.25
2022-09-16T08:55:31.717Z,1.10
2022-09-16T08:58:20.632Z,0.70
2022-09-16T09:01:23.118Z,1.08
2022-09-16T09:04:08.466Z,1.13
2022-09-16T09:07:02.113Z,1.00
2022-09-16T09:10:10.821Z,1.00
2022-09-16T09:13:09.520Z,0.82
2022-09-16T09:16:08.244Z,0.73
2022-09-16T09:19:19.469Z,0.75
2022-09-16T09:22:27.044Z,0.80
2022-09-16T09:25:49.028Z,1.00
2022-09-16T09:29:04.366Z,1.00
2022-09-16T09:32:10.596Z,1.48
2022-09-16T09:35:20.910Z,1.33
2022-09-16T09:38:50.297Z,1.10
2022-09-16T09:41:51.181Z,0.95
2022-09-16T09:44:51.780Z,0.65
2022-09-16T09:47:51.024Z,0.88
2022-09-16T09:50:48.037Z,1.00
2022-09-16T09:53:38.110Z,1.15
2022-09-16T09:56:31.659Z,1.50
2022-09-16T09:59:28.781Z,1.73
2022-09-16T10:02:19.341Z,1.80
2022-09-16T10:05:07.154Z,1.60
2022-09-16T10:08:03.527Z,0.98
2022-09-16T10:10:52.559Z,0.90
2022-09-16T10:13:48.811Z,0.90
2022-09-16T10:16:39.644Z,0.60
2022-09-16T10:19:27.768Z,0.50
2022-09-16T10:22:27.524Z,0.57
2022-09-16T10:25:26.663Z,0.57
2022-09-16T10:28:26.238Z,0.40
2022-09-16T10:31:12.018Z,0.45
2022-09-16T10:33:59.563Z,0.52
2022-09-16T10:36:46.074Z,0.63
2022-09-16T10:39:32.424Z,0.85
2022-09-16T10:42:26.002Z,0.65
2022-09-16T10:45:29.484Z,0.60
2022-09-16T10:48:19.059Z,1.23
2022-09-16T10:51:15.924Z,1.70
2022-09-16T10:54:05.140Z,1.45
2022-09-16T10:56:51.957Z,1.85
2022-09-16T10:59:36.947Z,1.30
2022-09-16T11:02:46.703Z,1.23
2022-09-16T11:05:50.750Z,2.15
2022-09-16T11:08:53.335Z,1.63
2022-09-16T11:11:47.985Z,1.45
2022-09-16T11:14:36.080Z,1.10
2022-09-16T11:17:54.641Z,1.10
2022-09-16T11:20:45.832Z,1.40
2022-09-16T11:24:01.520Z,1.48
2022-09-16T11:27:24.134Z,1.80
2022-09-16T11:30:19.230Z,1.52
2022-09-16T11:33:22.435Z,1.08
2022-09-16T11:36:19.005Z,1.40
2022-09-16T11:39:42.072Z,1.40
2022-09-16T11:42:46.727Z,1.40
2022-09-16T11:45:39.961Z,1.30
2022-09-16T11:48:30.887Z,1.90
2022-09-16T11:51:34.831Z,2.05
2022-09-16T11:54:26.204Z,1.52
2022-09-16T11:57:18.334Z,1.35
2022-09-16T12:00:10.652Z,1.30
2022-09-16T12:03:10.460Z,1.70
2022-09-16T12:06:11.360Z,2.03
2022-09-16T12:09:03.077Z,1.20
2022-09-16T12:12:02.417Z,1.23
2022-09-16T12:15:03.305Z,1.33
2022-09-16T12:17:58.984Z,1.33
2022-09-16T12:20:51.761Z,1.17
2022-09-16T12:24:01.702Z,1.05
2022-09-16T12:27:12.941Z,1.00
2022-09-16T12:30:03.156Z,1.10
2022-09-16T12:33:02.745Z,1.00
2022-09-16T12:35:57.531Z,1.30
2022-09-16T12:38:42.625Z,1.10
2022-09-16T12:42:10.429Z,1.08
2022-09-16T12:45:22.029Z,1.48
2022-09-16T12:48:38.416Z,1.20
2022-09-16T12:51:32.839Z,1.08
2022-09-16T12:55:07.817Z,1.10
2022-09-16T12:58:23.011Z,1.33
2022-09-16T13:01:35.262Z,0.98
2022-09-16T13:04:29.469Z,0.90
2022-09-16T13:07:28.487Z,1.13
2022-09-16T13:10:54.603Z,0.93
2022-09-16T13:13:45.965Z,1.05
2022-09-16T13:16:36.907Z,1.00
2022-09-16T13:19:27.053Z,0.90
2022-09-16T13:22:20.479Z,1.10
2022-09-16T13:25:11.107Z,1.20
2022-09-16T13:28:02.604Z,0.95
2022-09-16T13:30:48.702Z,0.98
2022-09-16T13:33:34.154Z,1.27
2022-09-16T13:36:19.809Z,1.10
2022-09-16T13:39:11.811Z,1.10
2022-09-16T13:41:57.958Z,0.90
2022-09-16T13:44:43.133Z,1.55
2022-09-16T13:47:40.146Z,1.30
2022-09-16T13:50:26.348Z,1.13
2022-09-16T13:53:21.088Z,0.90
2022-09-16T13:56:21.095Z,1.40
2022-09-16T13:59:24.052Z,1.10
2022-09-16T14:02:31.119Z,1.10
2022-09-16T14:05:38.359Z,0.90
2022-09-16T14:08:56.507Z,1.80
2022-09-16T14:12:04.190Z,1.83
2022-09-16T14:14:50.042Z,1.50
2022-09-16T14:17:45.649Z,1.70
2022-09-16T14:20:35.147Z,2.28
2022-09-16T14:23:20.848Z,1.70
2022-09-16T14:26:22.118Z,2.15
2022-09-16T14:29:11.381Z,1.55
2022-09-16T14:31:57.441Z,1.60
2022-09-16T14:34:42.990Z,1.52
2022-09-16T14:37:31.326Z,1.58
2022-09-16T14:40:20.635Z,1.40
2022-09-16T14:43:08.989Z,1.30
2022-09-16T14:48:49.235Z,2.45
2022-09-16T14:51:35.702Z,2.50
2022-09-16T14:54:22.971Z,1.60
2022-09-16T14:57:16.964Z,1.63
2022-09-16T15:00:11.848Z,1.45
2022-09-16T15:03:27.750Z,1.02
2022-09-16T15:06:22.796Z,1.10
2022-09-16T15:09:18.889Z,1.10
2022-09-16T15:12:04.744Z,1.02
2022-09-16T15:14:51.002Z,1.00
2022-09-16T15:17:36.412Z,1.20
2022-09-16T15:20:24.216Z,1.40
2022-09-16T15:23:25.233Z,1.10
2022-09-16T15:26:22.749Z,1.60
2022-09-16T15:29:26.979Z,0.95
2022-09-16T15:32:19.632Z,1.65
2022-09-16T15:37:56.934Z,1.13
2022-09-16T15:40:42.227Z,1.48
2022-09-16T15:43:30.889Z,1.52
2022-09-16T15:46:21.829Z,1.60
2022-09-16T15:49:14.575Z,1.35
2022-09-16T15:52:08.209Z,1.55
2022-09-16T15:55:00.753Z,1.50
2022-09-16T15:57:46.448Z,2.28
2022-09-16T16:01:10.455Z,1.67
2022-09-16T16:04:04.006Z,1.45
2022-09-16T16:06:59.185Z,1.55
2022-09-16T16:09:44.189Z,1.80
2022-09-16T16:12:29.656Z,2.00
2022-09-16T16:15:17.416Z,1.50
2022-09-16T16:18:06.059Z,2.42
2022-09-16T16:20:51.677Z,2.42
2022-09-16T16:23:37.719Z,2.20
2022-09-16T16:26:22.736Z,2.58
2022-09-16T16:29:08.188Z,1.75
2022-09-16T16:31:59.501Z,1.35
2022-09-16T16:34:47.693Z,1.70
2022-09-16T16:37:48.136Z,2.20
2022-09-16T16:40:33.478Z,1.88
2022-09-16T16:43:18.588Z,1.90
2022-09-16T16:46:04.332Z,2.08
2022-09-16T16:48:50.050Z,2.00
2022-09-16T16:51:35.496Z,1.30
2022-09-16T16:54:21.791Z,2.20
2022-09-16T16:57:07.721Z,2.10
2022-09-16T16:59:54.700Z,1.98
2022-09-16T17:02:40.659Z,1.80
2022-09-16T17:05:25.769Z,2.22
2022-09-16T17:08:11.519Z,1.83
2022-09-16T17:11:11.346Z,1.70
2022-09-16T17:14:06.002Z,1.70
2022-09-16T17:16:52.003Z,1.48
2022-09-16T17:19:37.602Z,1.35
2022-09-16T17:22:22.789Z,1.50
2022-09-16T17:25:08.594Z,1.20
2022-09-16T17:27:53.901Z,1.65
2022-09-16T17:30:43.661Z,1.73
2022-09-16T17:33:29.266Z,1.90
2022-09-16T17:36:18.306Z,2.00
2022-09-16T17:39:07.121Z,2.20
2022-09-16T17:41:54.312Z,1.75
2022-09-16T17:44:39.625Z,1.70
2022-09-16T17:47:25.648Z,1.80
2022-09-16T17:50:10.620Z,1.42
2022-09-16T17:52:56.103Z,1.60
2022-09-16T17:55:41.404Z,1.80
2022-09-16T17:58:26.861Z,2.30
2022-09-16T18:01:15.028Z,2.00
2022-09-16T18:04:01.614Z,2.60
2022-09-16T18:06:47.773Z,2.15
2022-09-16T18:09:32.929Z,2.10
2022-09-16T18:12:18.328Z,2.55
2022-09-16T18:15:04.836Z,2.00
2022-09-16T18:17:50.573Z,2.00
2022-09-16T18:20:35.799Z,1.63
2022-09-16T18:23:21.167Z,1.67
2022-09-16T18:26:09.056Z,1.42
2022-09-16T18:29:12.382Z,1.55
2022-09-16T18:31:58.273Z,1.50
2022-09-16T18:34:43.570Z,1.90
2022-09-16T18:37:29.320Z,1.13
2022-09-16T18:40:15.664Z,2.08
2022-09-16T18:43:01.061Z,1.25
2022-09-16T18:45:46.726Z,1.20
2022-09-16T18:48:31.921Z,1.17
2022-09-16T18:51:21.081Z,1.38
2022-09-16T18:54:15.126Z,1.33
2022-09-16T18:57:01.840Z,1.83
2022-09-16T18:59:47.136Z,0.98
2022-09-16T19:02:32.656Z,1.48
2022-09-16T19:05:19.233Z,1.15
2022-09-16T19:08:04.160Z,1.10
2022-09-16T19:10:50.013Z,0.90
2022-09-16T19:13:35.633Z,1.00
2022-09-16T19:16:21.744Z,0.85
2022-09-16T19:19:08.936Z,1.50
2022-09-16T19:21:54.334Z,1.33
2022-09-16T19:24:39.832Z,1.10
2022-09-16T19:27:25.388Z,1.48
2022-09-16T19:30:11.276Z,1.17
2022-09-16T19:32:57.059Z,1.20
2022-09-16T19:35:42.834Z,1.73
2022-09-16T19:38:28.905Z,1.30
2022-09-16T19:41:15.357Z,1.30
2022-09-16T19:44:03.728Z,1.08
2022-09-16T19:46:49.863Z,1.40
2022-09-16T19:49:35.481Z,1.33
2022-09-16T19:52:20.883Z,1.25
2022-09-16T19:55:08.301Z,1.20
2022-09-16T19:57:53.570Z,1.50
2022-09-16T20:00:58.549Z,1.30
2022-09-16T20:03:44.740Z,1.17
2022-09-16T20:06:36.339Z,1.23
2022-09-16T20:09:21.577Z,1.60
2022-09-16T20:12:07.107Z,1.38
2022-09-16T20:14:52.446Z,2.00
2022-09-16T20:17:38.870Z,1.85
2022-09-16T20:20:24.548Z,1.73
2022-09-16T20:23:09.888Z,2.70
2022-09-16T20:25:57.145Z,2.05
2022-09-16T20:28:43.529Z,1.80
2022-09-16T20:31:32.227Z,1.58
2022-09-16T20:34:17.617Z,1.85
2022-09-16T20:37:03.504Z,1.58
2022-09-16T20:39:48.942Z,1.60
2022-09-16T20:42:34.393Z,2.17
2022-09-16T20:45:19.658Z,1.52
2022-09-16T20:48:05.380Z,1.70
2022-09-16T20:50:50.491Z,1.75
2022-09-16T20:53:37.313Z,2.22
2022-09-16T20:56:22.767Z,1.63
2022-09-16T20:59:10.135Z,1.85
2022-09-16T21:01:56.389Z,1.95
2022-09-16T21:04:41.848Z,1.70
2022-09-16T21:07:28.284Z,2.28
2022-09-16T21:10:13.382Z,2.47
2022-09-16T21:12:59.196Z,1.95
2022-09-16T21:15:54.031Z,1.60
2022-09-16T21:18:39.674Z,1.88
2022-09-16T21:21:26.152Z,2.28
2022-09-16T21:24:11.915Z,3.00
2022-09-16T21:26:57.317Z,3.20
2022-09-16T21:29:43.263Z,2.70
2022-09-16T21:32:28.637Z,2.70
2022-09-16T21:35:14.373Z,3.22
2022-09-16T21:38:00.075Z,3.35
2022-09-16T21:40:46.791Z,2.75
2022-09-16T21:43:35.377Z,3.08
2022-09-16T21:46:31.635Z,2.10
2022-09-16T21:49:25.419Z,2.10
2022-09-16T21:52:10.917Z,2.53
2022-09-16T21:54:55.986Z,1.65
2022-09-16T21:57:41.570Z,2.35
2022-09-16T22:00:26.879Z,3.15
2022-09-16T22:03:12.326Z,2.47
2022-09-16T22:06:00.890Z,3.20
2022-09-16T22:08:49.144Z,2.53
2022-09-16T22:11:37.513Z,2.42
2022-09-16T22:14:23.744Z,2.40
2022-09-16T22:17:09.027Z,2.40
2022-09-16T22:19:54.969Z,2.35
2022-09-16T22:22:40.304Z,2.55
2022-09-16T22:25:25.878Z,2.08
2022-09-16T22:28:11.160Z,2.17
2022-09-16T22:31:08.447Z,1.98
2022-09-16T22:33:55.621Z,2.35
2022-09-16T22:36:41.577Z,2.00
2022-09-16T22:39:26.521Z,2.08
2022-09-16T22:42:11.940Z,1.90
2022-09-16T22:44:57.315Z,2.08
2022-09-16T22:47:42.928Z,2.17
2022-09-16T22:50:28.200Z,1.80
2022-09-16T22:53:13.618Z,1.95
2022-09-16T22:56:01.676Z,2.78
2022-09-16T22:58:51.311Z,2.15
2022-09-16T23:01:40.127Z,2.03
2022-09-16T23:04:27.361Z,2.05
2022-09-16T23:07:13.326Z,1.88
2022-09-16T23:09:59.014Z,2.13
2022-09-16T23:12:44.489Z,1.80
2022-09-16T23:15:30.212Z,1.70
2022-09-16T23:18:18.676Z,1.90
2022-09-16T23:21:07.044Z,1.70
2022-09-16T23:23:56.015Z,2.08
2022-09-16T23:26:41.637Z,1.70
2022-09-16T23:29:27.131Z,2.60
2022-09-16T23:32:12.531Z,2.88
2022-09-16T23:34:58.065Z,3.05
2022-09-16T23:37:43.340Z,2.63
2022-09-16T23:40:31.652Z,2.47
2022-09-16T23:43:17.265Z,2.75
2022-09-16T23:46:03.154Z,2.10
2022-09-16T23:48:52.533Z,1.70
2022-09-16T23:51:37.909Z,1.95
2022-09-16T23:54:23.719Z,2.45
2022-09-16T23:57:09.208Z,1.73
2022-09-16T23:59:55.809Z,2.55
